sensor_id;sensor_type;location;lat;lon;timestamp;temperature;humidity
9658;DHT22;4867;48.112;11.622;2022-08-11T00:01:27;17.20;99.90
9658;DHT22;4867;48.112;11.622;2022-08-11T00:06:26;17.10;99.90
9658;DHT22;4867;48.112;11.622;2022-08-11T00:08:55;17.10;99.90
9658;DHT22;4867;48.112;11.622;2022-08-11T00:11:32;17.10;99.90
9658;DHT22;4867;48.112;11.622;2022-08-11T00:14:00;17.10;99.90
9658;DHT22;4867;48.112;11.622;2022-08-11T00:16:31;17.00;99.90
9658;DHT22;4867;48.112;11.622;2022-08-11T00:18:59;17.00;99.90
9658;DHT22;4867;48.112;11.622;2022-08-11T00:21:27;16.90;99.90
9658;DHT22;4867;48.112;11.622;2022-08-11T00:24:15;16.90;99.90
9658;DHT22;4867;48.112;11.622;2022-08-11T00:26:53;16.90;99.90
9658;DHT22;4867;48.112;11.622;2022-08-11T00:29:21;16.80;99.90
9658;DHT22;4867;48.112;11.622;2022-08-11T00:31:53;16.70;99.90
9658;DHT22;4867;48.112;11.622;2022-08-11T00:34:24;16.60;99.90
9658;DHT22;4867;48.112;11.622;2022-08-11T00:37:05;16.60;99.90
9658;DHT22;4867;48.112;11.622;2022-08-11T00:39:46;16.60;99.90
9658;DHT22;4867;48.112;11.622;2022-08-11T00:42:47;16.50;99.90
9658;DHT22;4867;48.112;11.622;2022-08-11T00:48:02;16.40;99.90
9658;DHT22;4867;48.112;11.622;2022-08-11T00:50:46;16.30;99.90
9658;DHT22;4867;48.112;11.622;2022-08-11T00:56:56;16.20;99.90
9658;DHT22;4867;48.112;11.622;2022-08-11T01:00:11;16.10;99.90
9658;DHT22;4867;48.112;11.622;2022-08-11T01:03:18;16.00;99.90
9658;DHT22;4867;48.112;11.622;2022-08-11T01:06:05;16.00;99.90
9658;DHT22;4867;48.112;11.622;2022-08-11T01:12:38;15.90;99.90
9658;DHT22;4867;48.112;11.622;2022-08-11T01:15:44;15.70;99.90
9658;DHT22;4867;48.112;11.622;2022-08-11T01:18:52;15.70;99.90
9658;DHT22;4867;48.112;11.622;2022-08-11T01:27:45;15.60;99.90
9658;DHT22;4867;48.112;11.622;2022-08-11T01:38:38;15.60;99.90
9658;DHT22;4867;48.112;11.622;2022-08-11T01:44:12;15.60;99.90
9658;DHT22;4867;48.112;11.622;2022-08-11T01:56:37;15.50;99.90
9658;DHT22;4867;48.112;11.622;2022-08-11T01:59:16;15.50;99.90
9658;DHT22;4867;48.112;11.622;2022-08-11T02:02:04;15.50;99.90
9658;DHT22;4867;48.112;11.622;2022-08-11T02:05:25;15.40;99.90
9658;DHT22;4867;48.112;11.622;2022-08-11T02:08:26;15.40;99.90
9658;DHT22;4867;48.112;11.622;2022-08-11T02:11:29;15.30;99.90
9658;DHT22;4867;48.112;11.622;2022-08-11T02:19:37;15.20;99.90
9658;DHT22;4867;48.112;11.622;2022-08-11T02:25:52;15.10;99.90
9658;DHT22;4867;48.112;11.622;2022-08-11T02:28:41;15.10;99.90
9658;DHT22;4867;48.112;11.622;2022-08-11T02:31:18;15.00;99.90
9658;DHT22;4867;48.112;11.622;2022-08-11T02:51:00;14.80;99.90
9658;DHT22;4867;48.112;11.622;2022-08-11T02:53:35;14.80;99.90
9658;DHT22;4867;48.112;11.622;2022-08-11T02:56:20;14.80;99.90
9658;DHT22;4867;48.112;11.622;2022-08-11T02:59:14;14.80;99.90
9658;DHT22;4867;48.112;11.622;2022-08-11T03:02:30;14.80;99.90
9658;DHT22;4867;48.112;11.622;2022-08-11T03:13:18;14.60;99.90
9658;DHT22;4867;48.112;11.622;2022-08-11T03:16:45;14.60;99.90
9658;DHT22;4867;48.112;11.622;2022-08-11T03:22:34;14.50;99.90
9658;DHT22;4867;48.112;11.622;2022-08-11T03:25:18;14.50;99.90
9658;DHT22;4867;48.112;11.622;2022-08-11T03:28:02;14.50;99.90
9658;DHT22;4867;48.112;11.622;2022-08-11T03:41:37;14.30;99.90
9658;DHT22;4867;48.112;11.622;2022-08-11T03:56:05;14.20;99.90
9658;DHT22;4867;48.112;11.622;2022-08-11T04:14:10;14.20;99.90
9658;DHT22;4867;48.112;11.622;2022-08-11T04:23:15;14.20;99.90
9658;DHT22;4867;48.112;11.622;2022-08-11T04:47:53;14.10;99.90
9658;DHT22;4867;48.112;11.622;2022-08-11T04:51:09;14.10;99.90
9658;DHT22;4867;48.112;11.622;2022-08-11T05:00:29;14.20;99.90
9658;DHT22;4867;48.112;11.622;2022-08-11T05:03:45;14.30;99.90
9658;DHT22;4867;48.112;11.622;2022-08-11T05:12:08;14.70;99.90
9658;DHT22;4867;48.112;11.622;2022-08-11T05:14:49;14.80;99.90
9658;DHT22;4867;48.112;11.622;2022-08-11T05:18:06;15.00;99.90
9658;DHT22;4867;48.112;11.622;2022-08-11T05:20:54;15.10;99.90
9658;DHT22;4867;48.112;11.622;2022-08-11T05:23:46;15.20;99.90
9658;DHT22;4867;48.112;11.622;2022-08-11T05:26:45;15.40;99.90
9658;DHT22;4867;48.112;11.622;2022-08-11T05:29:45;15.50;99.90
9658;DHT22;4867;48.112;11.622;2022-08-11T05:32:37;15.50;99.90
9658;DHT22;4867;48.112;11.622;2022-08-11T05:35:47;15.70;99.90
9658;DHT22;4867;48.112;11.622;2022-08-11T05:38:32;15.90;99.90
9658;DHT22;4867;48.112;11.622;2022-08-11T05:41:23;16.00;99.90
9658;DHT22;4867;48.112;11.622;2022-08-11T05:44:10;16.10;99.90
9658;DHT22;4867;48.112;11.622;2022-08-11T05:47:02;16.10;99.90
9658;DHT22;4867;48.112;11.622;2022-08-11T05:49:49;16.20;99.90
9658;DHT22;4867;48.112;11.622;2022-08-11T05:52:44;16.20;99.90
9658;DHT22;4867;48.112;11.622;2022-08-11T05:55:31;16.30;99.90
9658;DHT22;4867;48.112;11.622;2022-08-11T05:58:37;16.50;99.90
9658;DHT22;4867;48.112;11.622;2022-08-11T06:01:10;16.60;99.90
9658;DHT22;4867;48.112;11.622;2022-08-11T06:03:42;16.70;99.90
9658;DHT22;4867;48.112;11.622;2022-08-11T06:06:29;16.90;99.90
9658;DHT22;4867;48.112;11.622;2022-08-11T06:08:57;17.00;99.90
9658;DHT22;4867;48.112;11.622;2022-08-11T06:11:25;17.10;99.90
9658;DHT22;4867;48.112;11.622;2022-08-11T06:14:11;17.20;99.90
9658;DHT22;4867;48.112;11.622;2022-08-11T06:16:40;17.40;99.90
9658;DHT22;4867;48.112;11.622;2022-08-11T06:19:08;17.50;99.90
9658;DHT22;4867;48.112;11.622;2022-08-11T06:21:36;17.60;99.90
9658;DHT22;4867;48.112;11.622;2022-08-11T06:24:10;17.70;99.90
9658;DHT22;4867;48.112;11.622;2022-08-11T06:26:40;17.90;99.90
9658;DHT22;4867;48.112;11.622;2022-08-11T06:29:27;18.00;99.90
9658;DHT22;4867;48.112;11.622;2022-08-11T06:32:13;18.10;99.90
9658;DHT22;4867;48.112;11.622;2022-08-11T06:40:41;18.40;99.90
9658;DHT22;4867;48.112;11.622;2022-08-11T06:43:20;18.50;99.90
9658;DHT22;4867;48.112;11.622;2022-08-11T06:46:02;18.50;99.90
9658;DHT22;4867;48.112;11.622;2022-08-11T06:48:32;18.60;99.90
9658;DHT22;4867;48.112;11.622;2022-08-11T06:51:02;18.70;99.90
9658;DHT22;4867;48.112;11.622;2022-08-11T06:53:46;18.80;99.90
9658;DHT22;4867;48.112;11.622;2022-08-11T06:56:34;18.90;99.90
9658;DHT22;4867;48.112;11.622;2022-08-11T06:59:41;18.90;99.90
9658;DHT22;4867;48.112;11.622;2022-08-11T07:02:36;19.00;99.90
9658;DHT22;4867;48.112;11.622;2022-08-11T07:05:23;19.20;99.90
9658;DHT22;4867;48.112;11.622;2022-08-11T07:08:13;19.30;99.90
9658;DHT22;4867;48.112;11.622;2022-08-11T07:13:58;19.40;99.90
9658;DHT22;4867;48.112;11.622;2022-08-11T07:16:48;19.40;99.90
9658;DHT22;4867;48.112;11.622;2022-08-11T07:19:23;19.50;99.90
9658;DHT22;4867;48.112;11.622;2022-08-11T07:22:11;19.40;99.90
9658;DHT22;4867;48.112;11.622;2022-08-11T07:27:46;19.40;99.90
9658;DHT22;4867;48.112;11.622;2022-08-11T07:30:36;19.50;99.90
9658;DHT22;4867;48.112;11.622;2022-08-11T07:33:05;19.60;99.90
9658;DHT22;4867;48.112;11.622;2022-08-11T07:35:42;19.70;99.90
9658;DHT22;4867;48.112;11.622;2022-08-11T07:38:17;19.80;99.90
9658;DHT22;4867;48.112;11.622;2022-08-11T07:40:51;19.90;99.90
9658;DHT22;4867;48.112;11.622;2022-08-11T07:43:18;20.00;99.90
9658;DHT22;4867;48.112;11.622;2022-08-11T07:45:46;20.00;99.90
9658;DHT22;4867;48.112;11.622;2022-08-11T07:48:33;20.00;99.90
9658;DHT22;4867;48.112;11.622;2022-08-11T07:51:19;20.10;99.90
9658;DHT22;4867;48.112;11.622;2022-08-11T07:54:05;20.30;99.90
9658;DHT22;4867;48.112;11.622;2022-08-11T07:56:42;20.50;99.90
9658;DHT22;4867;48.112;11.622;2022-08-11T07:59:30;20.50;99.90
9658;DHT22;4867;48.112;11.622;2022-08-11T08:02:42;20.60;99.90
9658;DHT22;4867;48.112;11.622;2022-08-11T08:05:28;20.50;99.90
9658;DHT22;4867;48.112;11.622;2022-08-11T08:08:15;20.50;99.90
9658;DHT22;4867;48.112;11.622;2022-08-11T08:11:01;20.60;99.90
9658;DHT22;4867;48.112;11.622;2022-08-11T08:13:53;20.80;99.90
9658;DHT22;4867;48.112;11.622;2022-08-11T08:16:41;20.90;99.90
9658;DHT22;4867;48.112;11.622;2022-08-11T08:19:26;21.00;99.90
9658;DHT22;4867;48.112;11.622;2022-08-11T08:21:54;21.20;99.90
9658;DHT22;4867;48.112;11.622;2022-08-11T08:24:41;21.30;99.90
9658;DHT22;4867;48.112;11.622;2022-08-11T08:27:09;21.50;99.90
9658;DHT22;4867;48.112;11.622;2022-08-11T08:29:39;21.60;99.90
9658;DHT22;4867;48.112;11.622;2022-08-11T08:32:25;21.60;99.90
9658;DHT22;4867;48.112;11.622;2022-08-11T08:34:54;21.70;99.90
9658;DHT22;4867;48.112;11.622;2022-08-11T08:37:24;21.70;99.90
9658;DHT22;4867;48.112;11.622;2022-08-11T08:40:13;21.80;99.90
9658;DHT22;4867;48.112;11.622;2022-08-11T08:42:46;21.90;99.90
9658;DHT22;4867;48.112;11.622;2022-08-11T08:45:17;22.00;99.90
9658;DHT22;4867;48.112;11.622;2022-08-11T08:47:59;22.10;99.90
9658;DHT22;4867;48.112;11.622;2022-08-11T08:50:36;22.20;99.90
9658;DHT22;4867;48.112;11.622;2022-08-11T08:53:25;22.30;99.90
9658;DHT22;4867;48.112;11.622;2022-08-11T08:56:00;22.50;99.90
9658;DHT22;4867;48.112;11.622;2022-08-11T08:58:28;22.50;99.90
9658;DHT22;4867;48.112;11.622;2022-08-11T09:00:57;22.50;99.90
9658;DHT22;4867;48.112;11.622;2022-08-11T09:03:25;22.50;99.90
9658;DHT22;4867;48.112;11.622;2022-08-11T09:06:14;22.70;99.90
9658;DHT22;4867;48.112;11.622;2022-08-11T09:08:45;22.90;99.90
9658;DHT22;4867;48.112;11.622;2022-08-11T09:11:16;23.00;99.90
9658;DHT22;4867;48.112;11.622;2022-08-11T09:14:02;23.00;99.90
9658;DHT22;4867;48.112;11.622;2022-08-11T09:16:36;23.00;99.90
9658;DHT22;4867;48.112;11.622;2022-08-11T09:19:06;23.00;99.90
9658;DHT22;4867;48.112;11.622;2022-08-11T09:21:33;23.20;99.90
9658;DHT22;4867;48.112;11.622;2022-08-11T09:24:17;23.20;99.90
9658;DHT22;4867;48.112;11.622;2022-08-11T09:27:05;23.30;99.90
9658;DHT22;4867;48.112;11.622;2022-08-11T09:29:33;23.30;99.90
9658;DHT22;4867;48.112;11.622;2022-08-11T09:32:00;23.30;99.90
9658;DHT22;4867;48.112;11.622;2022-08-11T09:34:28;23.40;99.90
9658;DHT22;4867;48.112;11.622;2022-08-11T09:36:58;23.40;99.90
9658;DHT22;4867;48.112;11.622;2022-08-11T09:40:05;23.40;99.90
9658;DHT22;4867;48.112;11.622;2022-08-11T09:42:54;23.40;99.90
9658;DHT22;4867;48.112;11.622;2022-08-11T09:45:40;23.50;99.90
9658;DHT22;4867;48.112;11.622;2022-08-11T09:48:10;23.80;99.90
9658;DHT22;4867;48.112;11.622;2022-08-11T09:50:38;23.90;99.90
9658;DHT22;4867;48.112;11.622;2022-08-11T09:53:06;24.00;99.90
9658;DHT22;4867;48.112;11.622;2022-08-11T09:55:53;24.10;99.70
9658;DHT22;4867;48.112;11.622;2022-08-11T09:58:20;24.10;99.40
9658;DHT22;4867;48.112;11.622;2022-08-11T10:01:09;24.10;99.30
9658;DHT22;4867;48.112;11.622;2022-08-11T10:04:12;24.10;99.50
9658;DHT22;4867;48.112;11.622;2022-08-11T10:06:44;24.20;98.80
9658;DHT22;4867;48.112;11.622;2022-08-11T10:10:02;24.10;98.60
9658;DHT22;4867;48.112;11.622;2022-08-11T10:12:37;24.10;98.50
9658;DHT22;4867;48.112;11.622;2022-08-11T10:15:08;24.30;98.80
9658;DHT22;4867;48.112;11.622;2022-08-11T10:17:57;24.40;98.30
9658;DHT22;4867;48.112;11.622;2022-08-11T10:20:46;24.50;98.40
9658;DHT22;4867;48.112;11.622;2022-08-11T10:23:17;24.60;98.10
9658;DHT22;4867;48.112;11.622;2022-08-11T10:26:26;24.60;98.00
9658;DHT22;4867;48.112;11.622;2022-08-11T10:29:12;24.70;97.50
9658;DHT22;4867;48.112;11.622;2022-08-11T10:32:03;24.60;97.40
9658;DHT22;4867;48.112;11.622;2022-08-11T10:34:59;24.60;97.50
9658;DHT22;4867;48.112;11.622;2022-08-11T10:37:28;24.70;97.20
9658;DHT22;4867;48.112;11.622;2022-08-11T10:40:21;24.70;97.10
9658;DHT22;4867;48.112;11.622;2022-08-11T10:42:54;24.80;96.90
9658;DHT22;4867;48.112;11.622;2022-08-11T10:45:34;24.80;96.60
9658;DHT22;4867;48.112;11.622;2022-08-11T10:48:21;24.80;96.50
9658;DHT22;4867;48.112;11.622;2022-08-11T10:50:50;25.00;96.60
9658;DHT22;4867;48.112;11.622;2022-08-11T10:53:42;25.10;96.40
9658;DHT22;4867;48.112;11.622;2022-08-11T10:56:31;25.30;96.60
9658;DHT22;4867;48.112;11.622;2022-08-11T10:59:17;25.40;96.00
9658;DHT22;4867;48.112;11.622;2022-08-11T11:01:45;25.30;96.10
9658;DHT22;4867;48.112;11.622;2022-08-11T11:04:15;25.20;96.00
9658;DHT22;4867;48.112;11.622;2022-08-11T11:09:18;25.50;95.50
9658;DHT22;4867;48.112;11.622;2022-08-11T11:11:52;25.50;95.10
9658;DHT22;4867;48.112;11.622;2022-08-11T11:14:40;25.50;95.30
9658;DHT22;4867;48.112;11.622;2022-08-11T11:17:29;25.60;95.20
9658;DHT22;4867;48.112;11.622;2022-08-11T11:20:34;25.70;95.50
9658;DHT22;4867;48.112;11.622;2022-08-11T11:31:40;25.90;94.30
9658;DHT22;4867;48.112;11.622;2022-08-11T11:36:55;26.00;94.30
9658;DHT22;4867;48.112;11.622;2022-08-11T11:39:24;26.10;93.30
9658;DHT22;4867;48.112;11.622;2022-08-11T11:41:54;26.00;93.20
9658;DHT22;4867;48.112;11.622;2022-08-11T11:44:22;26.00;93.40
9658;DHT22;4867;48.112;11.622;2022-08-11T11:46:51;26.00;93.30
9658;DHT22;4867;48.112;11.622;2022-08-11T11:49:22;26.00;93.40
9658;DHT22;4867;48.112;11.622;2022-08-11T11:51:51;26.00;92.90
9658;DHT22;4867;48.112;11.622;2022-08-11T11:54:24;26.10;93.00
9658;DHT22;4867;48.112;11.622;2022-08-11T11:56:53;26.20;92.70
9658;DHT22;4867;48.112;11.622;2022-08-11T11:59:22;26.10;92.90
9658;DHT22;4867;48.112;11.622;2022-08-11T12:02:10;26.10;92.40
9658;DHT22;4867;48.112;11.622;2022-08-11T12:04:43;26.10;92.10
9658;DHT22;4867;48.112;11.622;2022-08-11T12:07:11;26.20;91.80
9658;DHT22;4867;48.112;11.622;2022-08-11T12:09:57;26.20;91.60
9658;DHT22;4867;48.112;11.622;2022-08-11T12:12:25;26.20;92.00
9658;DHT22;4867;48.112;11.622;2022-08-11T12:15:11;26.30;91.50
9658;DHT22;4867;48.112;11.622;2022-08-11T12:17:38;26.30;91.30
9658;DHT22;4867;48.112;11.622;2022-08-11T12:20:06;26.30;91.00
9658;DHT22;4867;48.112;11.622;2022-08-11T12:22:54;26.30;91.00
9658;DHT22;4867;48.112;11.622;2022-08-11T12:25:42;26.20;90.90
9658;DHT22;4867;48.112;11.622;2022-08-11T12:28:48;26.40;90.60
9658;DHT22;4867;48.112;11.622;2022-08-11T12:31:16;26.50;90.70
9658;DHT22;4867;48.112;11.622;2022-08-11T12:33:51;26.60;90.60
9658;DHT22;4867;48.112;11.622;2022-08-11T12:36:19;26.70;90.00
9658;DHT22;4867;48.112;11.622;2022-08-11T12:38:49;26.70;89.90
9658;DHT22;4867;48.112;11.622;2022-08-11T12:41:20;26.80;90.30
9658;DHT22;4867;48.112;11.622;2022-08-11T12:44:08;26.80;89.40
9658;DHT22;4867;48.112;11.622;2022-08-11T12:46:57;26.80;90.10
9658;DHT22;4867;48.112;11.622;2022-08-11T12:49:27;26.80;88.20
9658;DHT22;4867;48.112;11.622;2022-08-11T12:52:21;26.80;88.50
9658;DHT22;4867;48.112;11.622;2022-08-11T13:00:15;27.20;88.20
9658;DHT22;4867;48.112;11.622;2022-08-11T13:03:02;27.40;87.20
9658;DHT22;4867;48.112;11.622;2022-08-11T13:05:52;27.40;85.90
9658;DHT22;4867;48.112;11.622;2022-08-11T13:08:22;27.50;86.60
9658;DHT22;4867;48.112;11.622;2022-08-11T13:10:52;27.60;86.00
9658;DHT22;4867;48.112;11.622;2022-08-11T13:13:40;27.60;86.40
9658;DHT22;4867;48.112;11.622;2022-08-11T13:16:31;27.70;85.60
9658;DHT22;4867;48.112;11.622;2022-08-11T13:19:19;27.60;83.70
9658;DHT22;4867;48.112;11.622;2022-08-11T13:21:48;27.60;84.10
9658;DHT22;4867;48.112;11.622;2022-08-11T13:24:16;27.50;84.00
9658;DHT22;4867;48.112;11.622;2022-08-11T13:26:45;27.50;84.80
9658;DHT22;4867;48.112;11.622;2022-08-11T13:29:21;27.60;84.50
9658;DHT22;4867;48.112;11.622;2022-08-11T13:31:49;27.50;84.20
9658;DHT22;4867;48.112;11.622;2022-08-11T13:34:18;27.60;83.50
9658;DHT22;4867;48.112;11.622;2022-08-11T13:36:51;27.60;83.50
9658;DHT22;4867;48.112;11.622;2022-08-11T13:39:24;27.70;83.60
9658;DHT22;4867;48.112;11.622;2022-08-11T13:41:54;27.80;83.70
9658;DHT22;4867;48.112;11.622;2022-08-11T13:44:25;27.80;83.50
9658;DHT22;4867;48.112;11.622;2022-08-11T13:46:58;27.70;82.50
9658;DHT22;4867;48.112;11.622;2022-08-11T13:49:31;27.70;81.90
9658;DHT22;4867;48.112;11.622;2022-08-11T13:52:00;27.70;82.40
9658;DHT22;4867;48.112;11.622;2022-08-11T13:54:31;27.70;82.40
9658;DHT22;4867;48.112;11.622;2022-08-11T13:57:03;27.60;81.50
9658;DHT22;4867;48.112;11.622;2022-08-11T13:59:35;27.50;82.10
9658;DHT22;4867;48.112;11.622;2022-08-11T14:02:22;27.40;82.00
9658;DHT22;4867;48.112;11.622;2022-08-11T14:04:57;27.50;81.80
9658;DHT22;4867;48.112;11.622;2022-08-11T14:07:35;27.60;81.70
9658;DHT22;4867;48.112;11.622;2022-08-11T14:10:05;27.70;81.40
9658;DHT22;4867;48.112;11.622;2022-08-11T14:12:34;27.80;81.00
9658;DHT22;4867;48.112;11.622;2022-08-11T14:15:33;27.90;81.40
9658;DHT22;4867;48.112;11.622;2022-08-11T14:18:07;27.90;80.50
9658;DHT22;4867;48.112;11.622;2022-08-11T14:20:37;27.80;79.50
9658;DHT22;4867;48.112;11.622;2022-08-11T14:23:29;27.70;80.50
9658;DHT22;4867;48.112;11.622;2022-08-11T14:25:57;27.70;81.10
9658;DHT22;4867;48.112;11.622;2022-08-11T14:28:44;27.70;81.10
9658;DHT22;4867;48.112;11.622;2022-08-11T14:31:13;27.70;79.50
9658;DHT22;4867;48.112;11.622;2022-08-11T14:33:42;27.70;78.90
9658;DHT22;4867;48.112;11.622;2022-08-11T14:36:34;27.70;80.20
9658;DHT22;4867;48.112;11.622;2022-08-11T14:39:08;27.80;80.30
9658;DHT22;4867;48.112;11.622;2022-08-11T14:41:59;27.90;78.90
9658;DHT22;4867;48.112;11.622;2022-08-11T14:44:48;28.00;78.90
9658;DHT22;4867;48.112;11.622;2022-08-11T14:47:41;28.10;77.70
9658;DHT22;4867;48.112;11.622;2022-08-11T14:50:20;28.20;77.70
9658;DHT22;4867;48.112;11.622;2022-08-11T14:55:17;28.20;78.10
9658;DHT22;4867;48.112;11.622;2022-08-11T14:58:04;28.30;76.60
9658;DHT22;4867;48.112;11.622;2022-08-11T15:00:34;28.40;77.30
9658;DHT22;4867;48.112;11.622;2022-08-11T15:03:03;28.50;77.40
9658;DHT22;4867;48.112;11.622;2022-08-11T15:08:06;28.60;77.70
9658;DHT22;4867;48.112;11.622;2022-08-11T15:10:36;28.70;76.70
9658;DHT22;4867;48.112;11.622;2022-08-11T15:13:04;28.70;75.60
9658;DHT22;4867;48.112;11.622;2022-08-11T15:15:33;28.70;75.30
9658;DHT22;4867;48.112;11.622;2022-08-11T15:18:20;28.60;75.70
9658;DHT22;4867;48.112;11.622;2022-08-11T15:20:50;28.60;75.10
9658;DHT22;4867;48.112;11.622;2022-08-11T15:23:35;28.50;74.20
9658;DHT22;4867;48.112;11.622;2022-08-11T15:26:38;28.30;74.60
9658;DHT22;4867;48.112;11.622;2022-08-11T15:29:27;28.20;74.90
9658;DHT22;4867;48.112;11.622;2022-08-11T15:32:14;28.30;75.10
9658;DHT22;4867;48.112;11.622;2022-08-11T15:35:14;28.50;75.10
9658;DHT22;4867;48.112;11.622;2022-08-11T15:38:06;28.40;72.80
9658;DHT22;4867;48.112;11.622;2022-08-11T15:40:38;28.40;73.60
9658;DHT22;4867;48.112;11.622;2022-08-11T15:43:42;28.10;72.70
9658;DHT22;4867;48.112;11.622;2022-08-11T15:46:38;27.90;72.70
9658;DHT22;4867;48.112;11.622;2022-08-11T15:49:12;27.70;73.50
9658;DHT22;4867;48.112;11.622;2022-08-11T15:54:31;27.30;73.50
9658;DHT22;4867;48.112;11.622;2022-08-11T15:57:00;27.20;74.50
9658;DHT22;4867;48.112;11.622;2022-08-11T15:59:31;27.20;74.00
9658;DHT22;4867;48.112;11.622;2022-08-11T16:02:20;27.00;74.30
9658;DHT22;4867;48.112;11.622;2022-08-11T16:04:54;26.80;74.10
9658;DHT22;4867;48.112;11.622;2022-08-11T16:07:26;26.80;73.00
9658;DHT22;4867;48.112;11.622;2022-08-11T16:10:02;26.80;73.40
9658;DHT22;4867;48.112;11.622;2022-08-11T16:15:33;27.00;72.60
9658;DHT22;4867;48.112;11.622;2022-08-11T16:18:21;27.10;72.50
9658;DHT22;4867;48.112;11.622;2022-08-11T16:20:52;27.10;73.20
9658;DHT22;4867;48.112;11.622;2022-08-11T16:23:22;27.10;73.30
9658;DHT22;4867;48.112;11.622;2022-08-11T16:25:54;27.10;73.00
9658;DHT22;4867;48.112;11.622;2022-08-11T16:28:42;27.10;73.10
9658;DHT22;4867;48.112;11.622;2022-08-11T16:31:11;27.00;72.30
9658;DHT22;4867;48.112;11.622;2022-08-11T16:33:39;27.00;72.80
9658;DHT22;4867;48.112;11.622;2022-08-11T16:36:18;27.00;73.30
9658;DHT22;4867;48.112;11.622;2022-08-11T16:39:06;26.90;73.50
9658;DHT22;4867;48.112;11.622;2022-08-11T16:41:35;26.90;73.70
9658;DHT22;4867;48.112;11.622;2022-08-11T16:44:22;26.90;73.80
9658;DHT22;4867;48.112;11.622;2022-08-11T16:47:18;26.90;73.50
9658;DHT22;4867;48.112;11.622;2022-08-11T16:50:07;26.70;73.90
9658;DHT22;4867;48.112;11.622;2022-08-11T16:52:36;26.60;74.10
9658;DHT22;4867;48.112;11.622;2022-08-11T16:55:03;26.60;74.60
9658;DHT22;4867;48.112;11.622;2022-08-11T16:57:33;26.60;75.10
9658;DHT22;4867;48.112;11.622;2022-08-11T17:00:18;26.60;75.40
9658;DHT22;4867;48.112;11.622;2022-08-11T17:02:49;26.60;75.90
9658;DHT22;4867;48.112;11.622;2022-08-11T17:05:37;26.70;76.20
9658;DHT22;4867;48.112;11.622;2022-08-11T17:08:29;26.60;76.10
9658;DHT22;4867;48.112;11.622;2022-08-11T17:11:27;26.70;76.30
9658;DHT22;4867;48.112;11.622;2022-08-11T17:14:16;26.90;76.20
9658;DHT22;4867;48.112;11.622;2022-08-11T17:17:03;27.30;75.80
9658;DHT22;4867;48.112;11.622;2022-08-11T17:19:34;27.70;75.40
9658;DHT22;4867;48.112;11.622;2022-08-11T17:22:24;28.00;74.80
9658;DHT22;4867;48.112;11.622;2022-08-11T17:25:11;28.30;74.30
9658;DHT22;4867;48.112;11.622;2022-08-11T17:27:41;28.60;73.30
9658;DHT22;4867;48.112;11.622;2022-08-11T17:30:09;28.80;71.70
9658;DHT22;4867;48.112;11.622;2022-08-11T17:32:44;28.80;70.30
9658;DHT22;4867;48.112;11.622;2022-08-11T17:35:41;29.00;70.00
9658;DHT22;4867;48.112;11.622;2022-08-11T17:38:13;29.00;69.10
9658;DHT22;4867;48.112;11.622;2022-08-11T17:40:55;29.10;69.80
9658;DHT22;4867;48.112;11.622;2022-08-11T17:43:50;29.30;68.80
9658;DHT22;4867;48.112;11.622;2022-08-11T17:46:45;29.30;69.10
9658;DHT22;4867;48.112;11.622;2022-08-11T17:49:34;29.20;67.10
9658;DHT22;4867;48.112;11.622;2022-08-11T17:52:05;29.00;68.30
9658;DHT22;4867;48.112;11.622;2022-08-11T17:54:52;28.90;68.30
9658;DHT22;4867;48.112;11.622;2022-08-11T17:57:40;28.70;68.40
9658;DHT22;4867;48.112;11.622;2022-08-11T18:00:28;28.30;69.40
9658;DHT22;4867;48.112;11.622;2022-08-11T18:02:58;27.80;69.50
9658;DHT22;4867;48.112;11.622;2022-08-11T18:05:45;27.30;69.60
9658;DHT22;4867;48.112;11.622;2022-08-11T18:08:15;26.90;70.50
9658;DHT22;4867;48.112;11.622;2022-08-11T18:11:04;26.50;71.00
9658;DHT22;4867;48.112;11.622;2022-08-11T18:14:13;26.10;71.80
9658;DHT22;4867;48.112;11.622;2022-08-11T18:17:08;25.80;72.60
9658;DHT22;4867;48.112;11.622;2022-08-11T18:19:53;25.40;73.30
9658;DHT22;4867;48.112;11.622;2022-08-11T18:22:44;25.10;73.40
9658;DHT22;4867;48.112;11.622;2022-08-11T18:25:34;24.90;74.40
9658;DHT22;4867;48.112;11.622;2022-08-11T18:28:43;24.70;74.90
9658;DHT22;4867;48.112;11.622;2022-08-11T18:31:32;24.50;75.90
9658;DHT22;4867;48.112;11.622;2022-08-11T18:34:31;24.30;76.10
9658;DHT22;4867;48.112;11.622;2022-08-11T18:37:29;24.10;77.10
9658;DHT22;4867;48.112;11.622;2022-08-11T18:40:19;23.90;77.40
9658;DHT22;4867;48.112;11.622;2022-08-11T18:43:09;23.80;77.80
9658;DHT22;4867;48.112;11.622;2022-08-11T18:46:00;23.60;78.10
9658;DHT22;4867;48.112;11.622;2022-08-11T18:48:50;23.50;78.90
9658;DHT22;4867;48.112;11.622;2022-08-11T18:51:45;23.40;79.30
9658;DHT22;4867;48.112;11.622;2022-08-11T18:54:35;23.20;79.60
9658;DHT22;4867;48.112;11.622;2022-08-11T18:57:22;23.10;79.70
9658;DHT22;4867;48.112;11.622;2022-08-11T19:00:17;23.10;80.20
9658;DHT22;4867;48.112;11.622;2022-08-11T19:03:04;22.90;80.40
9658;DHT22;4867;48.112;11.622;2022-08-11T19:05:52;22.80;80.80
9658;DHT22;4867;48.112;11.622;2022-08-11T19:09:01;22.70;81.40
9658;DHT22;4867;48.112;11.622;2022-08-11T19:11:47;22.70;81.80
9658;DHT22;4867;48.112;11.622;2022-08-11T19:14:34;22.60;81.80
9658;DHT22;4867;48.112;11.622;2022-08-11T19:17:21;22.50;81.90
9658;DHT22;4867;48.112;11.622;2022-08-11T19:20:18;22.50;82.30
9658;DHT22;4867;48.112;11.622;2022-08-11T19:23:07;22.40;82.70
9658;DHT22;4867;48.112;11.622;2022-08-11T19:25:53;22.30;83.00
9658;DHT22;4867;48.112;11.622;2022-08-11T19:28:41;22.30;83.10
9658;DHT22;4867;48.112;11.622;2022-08-11T19:31:28;22.10;83.30
9658;DHT22;4867;48.112;11.622;2022-08-11T19:34:18;22.10;83.50
9658;DHT22;4867;48.112;11.622;2022-08-11T19:37:05;22.10;83.70
9658;DHT22;4867;48.112;11.622;2022-08-11T19:40:01;22.00;83.90
9658;DHT22;4867;48.112;11.622;2022-08-11T19:42:48;21.90;84.70
9658;DHT22;4867;48.112;11.622;2022-08-11T19:45:55;21.90;85.00
9658;DHT22;4867;48.112;11.622;2022-08-11T19:48:42;21.80;85.60
9658;DHT22;4867;48.112;11.622;2022-08-11T19:51:29;21.70;86.20
9658;DHT22;4867;48.112;11.622;2022-08-11T19:54:23;21.70;87.50
9658;DHT22;4867;48.112;11.622;2022-08-11T19:57:09;21.50;87.80
9658;DHT22;4867;48.112;11.622;2022-08-11T19:59:56;21.40;87.50
9658;DHT22;4867;48.112;11.622;2022-08-11T20:02:43;21.30;88.90
9658;DHT22;4867;48.112;11.622;2022-08-11T20:05:35;21.20;89.00
9658;DHT22;4867;48.112;11.622;2022-08-11T20:08:27;21.10;90.00
9658;DHT22;4867;48.112;11.622;2022-08-11T20:11:14;21.00;90.00
9658;DHT22;4867;48.112;11.622;2022-08-11T20:14:01;20.80;89.80
9658;DHT22;4867;48.112;11.622;2022-08-11T20:16:47;20.80;90.20
9658;DHT22;4867;48.112;11.622;2022-08-11T20:19:36;20.70;90.40
9658;DHT22;4867;48.112;11.622;2022-08-11T20:22:28;20.60;90.60
9658;DHT22;4867;48.112;11.622;2022-08-11T20:25:16;20.50;90.80
9658;DHT22;4867;48.112;11.622;2022-08-11T20:28:03;20.40;91.00
9658;DHT22;4867;48.112;11.622;2022-08-11T20:30:51;20.30;91.20
9658;DHT22;4867;48.112;11.622;2022-08-11T20:33:39;20.20;91.10
9658;DHT22;4867;48.112;11.622;2022-08-11T20:36:24;20.20;92.00
9658;DHT22;4867;48.112;11.622;2022-08-11T20:39:20;20.10;91.80